Time;durP1;ratioP1;P1;durP2;ratioP2;P2;SDS_P1;SDS_P2;PMS_P1;PMS_P2;Temp;Humidity;BMP_temperature;BMP_pressure;BME280_temperature;BME280_humidity;BME280_pressure;Samples;Min_cycle;Max_cycle;Signal;HPM_P1;HPM_P2
2023/04/12 00:01:34;;;;;;;20.55;11.00;;;;;;;;;;5077042;28;20099;-91
2023/04/12 00:04:02;;;;;;;23.98;11.05;;;;;;;;;;5072112;28;20035;-87
2023/04/12 00:06:31;;;;;;;22.17;12.68;;;;;;;;;;5089477;28;20039;-88
2023/04/12 00:08:58;;;;;;;22.35;11.68;;;;;;;;;;5097525;28;20072;-91
2023/04/12 00:11:23;;;;;;;24.83;11.82;;;;;;;;;;5073827;28;20032;-90
2023/04/12 00:13:49;;;;;;;23.55;11.77;;;;;;;;;;5091636;28;20028;-90
2023/04/12 00:16:14;;;;;;;22.05;11.40;;;;;;;;;;5099570;28;20040;-86
2023/04/12 00:18:41;;;;;;;25.30;12.75;;;;;;;;;;5096638;28;20036;-90
2023/04/12 00:21:09;;;;;;;21.08;11.23;;;;;;;;;;5084918;28;20028;-89
2023/04/12 00:23:36;;;;;;;24.80;11.80;;;;;;;;;;5084994;28;20040;-91
2023/04/12 00:26:02;;;;;;;26.17;12.35;;;;;;;;;;5073459;28;20036;-92
2023/04/12 00:28:39;;;;;;;22.75;11.88;;;;;;;;;;5113870;28;20047;-91
2023/04/12 00:31:05;;;;;;;23.30;12.35;;;;;;;;;;5072088;28;20034;-91
2023/04/12 00:33:32;;;;;;;30.88;12.32;;;;;;;;;;5084582;28;20111;-91
2023/04/12 00:35:58;;;;;;;25.60;12.55;;;;;;;;;;5081329;28;20525;-91
2023/04/12 00:38:23;;;;;;;23.98;12.27;;;;;;;;;;5065179;28;20028;-92
2023/04/12 00:40:49;;;;;;;29.08;12.32;;;;;;;;;;5047170;28;20050;-91
2023/04/12 00:43:17;;;;;;;21.20;11.77;;;;;;;;;;5064663;28;20036;-92
2023/04/12 00:45:43;;;;;;;23.25;11.75;;;;;;;;;;5064628;28;20070;-91
2023/04/12 00:48:08;;;;;;;21.77;12.40;;;;;;;;;;5070518;28;20012;-91
2023/04/12 00:50:34;;;;;;;24.52;12.30;;;;;;;;;;5088573;28;20101;-90
2023/04/12 00:53:00;;;;;;;21.83;12.35;;;;;;;;;;5064852;28;20066;-91
2023/04/12 00:55:25;;;;;;;26.15;11.80;;;;;;;;;;5063053;28;20082;-89
2023/04/12 00:57:51;;;;;;;23.73;11.95;;;;;;;;;;5080518;28;20034;-92
2023/04/12 01:00:17;;;;;;;27.75;12.50;;;;;;;;;;5081241;28;20024;-89
2023/04/12 01:02:49;;;;;;;24.25;12.07;;;;;;;;;;5106126;28;20032;-90
2023/04/12 01:05:22;;;;;;;24.80;12.35;;;;;;;;;;5092323;28;20031;-90
2023/04/12 01:08:06;;;;;;;21.13;11.63;;;;;;;;;;5090950;28;20028;-90
2023/04/12 01:10:54;;;;;;;23.30;11.93;;;;;;;;;;5114629;28;20028;-90
2023/04/12 01:13:34;;;;;;;23.55;12.20;;;;;;;;;;5108514;28;20031;-92
2023/04/12 01:16:18;;;;;;;23.85;13.00;;;;;;;;;;5100950;28;20084;-92
2023/04/12 01:18:44;;;;;;;25.05;12.85;;;;;;;;;;5084973;28;20460;-91
2023/04/12 01:21:15;;;;;;;24.83;11.65;;;;;;;;;;5083164;28;20059;-93
2023/04/12 01:23:47;;;;;;;23.83;11.75;;;;;;;;;;5084345;28;20126;-90
2023/04/12 01:26:37;;;;;;;26.80;12.95;;;;;;;;;;5101869;28;20039;-91
2023/04/12 01:29:27;;;;;;;24.50;13.13;;;;;;;;;;5101372;28;20024;-89
2023/04/12 01:32:06;;;;;;;27.38;13.30;;;;;;;;;;5107565;28;20095;-90
2023/04/12 01:34:32;;;;;;;25.83;13.02;;;;;;;;;;5069225;28;20336;-91
2023/04/12 01:37:00;;;;;;;25.80;13.27;;;;;;;;;;5084197;28;20134;-92
2023/04/12 01:39:26;;;;;;;27.30;12.25;;;;;;;;;;5083202;28;20106;-91
2023/04/12 01:41:51;;;;;;;28.17;12.23;;;;;;;;;;5083957;28;20023;-91
2023/04/12 01:44:17;;;;;;;28.25;12.77;;;;;;;;;;5100554;28;20030;-92
2023/04/12 01:46:46;;;;;;;24.77;12.32;;;;;;;;;;5082710;28;20051;-91
2023/04/12 01:49:12;;;;;;;30.92;13.57;;;;;;;;;;5118290;28;20023;-91
2023/04/12 01:51:41;;;;;;;27.45;13.65;;;;;;;;;;5112870;28;20042;-89
2023/04/12 01:54:11;;;;;;;28.35;12.65;;;;;;;;;;5126375;28;20407;-89
2023/04/12 01:56:43;;;;;;;25.10;12.98;;;;;;;;;;5084658;28;20035;-90
2023/04/12 01:59:09;;;;;;;29.55;13.48;;;;;;;;;;5084030;28;20039;-91
2023/04/12 02:01:35;;;;;;;24.33;13.30;;;;;;;;;;5083067;28;20038;-92
2023/04/12 02:04:03;;;;;;;31.65;14.35;;;;;;;;;;5086367;28;20531;-91
2023/04/12 02:06:28;;;;;;;29.13;14.25;;;;;;;;;;5104803;28;20032;-91
2023/04/12 02:09:26;;;;;;;30.80;13.63;;;;;;;;;;5090410;28;20086;-90
2023/04/12 02:11:51;;;;;;;30.25;13.57;;;;;;;;;;5108794;28;20023;-91
2023/04/12 02:14:18;;;;;;;32.50;14.18;;;;;;;;;;5085808;28;20027;-92
2023/04/12 02:16:49;;;;;;;28.75;14.43;;;;;;;;;;5115895;28;20022;-92
2023/04/12 02:19:15;;;;;;;28.40;14.10;;;;;;;;;;5103507;28;20051;-92
2023/04/12 02:21:43;;;;;;;26.95;14.23;;;;;;;;;;5087303;28;20073;-92
2023/04/12 02:24:10;;;;;;;32.28;14.50;;;;;;;;;;5087070;28;20464;-92
2023/04/12 02:26:37;;;;;;;27.05;13.98;;;;;;;;;;5086994;28;20479;-93
2023/04/12 02:29:09;;;;;;;28.90;14.30;;;;;;;;;;5088534;28;20023;-91
2023/04/12 02:31:35;;;;;;;30.27;14.23;;;;;;;;;;5071761;28;20058;-92
2023/04/12 02:34:01;;;;;;;32.10;14.43;;;;;;;;;;5081977;28;20952;-92
2023/04/12 02:36:29;;;;;;;33.00;14.77;;;;;;;;;;5073344;28;20454;-91
2023/04/12 02:38:55;;;;;;;30.73;16.13;;;;;;;;;;5066158;28;20089;-91
2023/04/12 02:41:21;;;;;;;28.40;15.25;;;;;;;;;;5102347;28;20023;-92
2023/04/12 02:43:47;;;;;;;32.05;14.98;;;;;;;;;;5103517;28;20122;-93
2023/04/12 02:46:24;;;;;;;33.95;15.25;;;;;;;;;;5086673;28;20040;-91
2023/04/12 02:48:49;;;;;;;32.45;14.98;;;;;;;;;;5072542;28;20023;-93
2023/04/12 02:51:15;;;;;;;34.83;16.10;;;;;;;;;;5086742;28;20409;-91
2023/04/12 02:53:41;;;;;;;35.83;16.52;;;;;;;;;;5104001;28;20041;-91
2023/04/12 02:56:07;;;;;;;39.67;17.40;;;;;;;;;;5096260;28;20042;-90
2023/04/12 02:58:33;;;;;;;41.50;17.42;;;;;;;;;;5085822;28;20100;-90
2023/04/12 03:00:59;;;;;;;31.40;16.17;;;;;;;;;;5068661;28;20093;-92
2023/04/12 03:03:25;;;;;;;39.58;17.08;;;;;;;;;;5086221;28;20032;-92
2023/04/12 03:05:54;;;;;;;38.72;16.30;;;;;;;;;;5085743;28;20073;-92
2023/04/12 03:08:22;;;;;;;32.75;15.85;;;;;;;;;;5072517;28;20038;-91
2023/04/12 03:10:48;;;;;;;31.30;15.52;;;;;;;;;;5103251;28;20032;-89
2023/04/12 03:13:16;;;;;;;31.70;14.98;;;;;;;;;;5102575;28;20402;-89
2023/04/12 03:15:45;;;;;;;38.70;16.38;;;;;;;;;;5101620;28;20035;-91
2023/04/12 03:18:10;;;;;;;34.85;15.75;;;;;;;;;;5103779;28;20027;-91
2023/04/12 03:20:37;;;;;;;34.70;15.90;;;;;;;;;;5085129;28;20541;-92
2023/04/12 03:23:03;;;;;;;31.35;14.30;;;;;;;;;;5102555;28;20027;-92
2023/04/12 03:25:29;;;;;;;29.20;14.05;;;;;;;;;;5086425;28;20046;-91
2023/04/12 03:27:54;;;;;;;34.10;14.95;;;;;;;;;;5106225;28;20040;-92
2023/04/12 03:30:20;;;;;;;35.35;14.32;;;;;;;;;;5102951;28;20028;-92
2023/04/12 03:32:45;;;;;;;31.35;13.00;;;;;;;;;;5086342;28;20038;-91
2023/04/12 03:35:11;;;;;;;34.28;13.30;;;;;;;;;;5096484;28;20027;-89
2023/04/12 03:37:42;;;;;;;28.42;12.43;;;;;;;;;;5094003;28;20023;-91
2023/04/12 03:40:08;;;;;;;26.17;12.57;;;;;;;;;;5085386;28;20413;-92
2023/04/12 03:42:35;;;;;;;33.97;12.68;;;;;;;;;;5085477;28;20031;-91
2023/04/12 03:45:01;;;;;;;25.88;11.82;;;;;;;;;;5085692;28;20032;-91
2023/04/12 03:47:26;;;;;;;28.10;12.05;;;;;;;;;;5088043;28;20471;-87
2023/04/12 03:49:54;;;;;;;29.20;12.52;;;;;;;;;;5102908;28;20028;-89
2023/04/12 03:52:19;;;;;;;33.75;13.35;;;;;;;;;;5068671;28;20042;-91
2023/04/12 03:54:46;;;;;;;30.83;11.57;;;;;;;;;;5102173;28;20023;-90
2023/04/12 03:57:12;;;;;;;27.52;10.98;;;;;;;;;;5101116;28;20098;-92
2023/04/12 03:59:38;;;;;;;31.17;10.60;;;;;;;;;;5088655;28;20038;-92
2023/04/12 04:02:05;;;;;;;19.55;8.90;;;;;;;;;;5080425;28;20970;-91
2023/04/12 04:04:31;;;;;;;20.60;9.25;;;;;;;;;;5084858;28;20035;-91
2023/04/12 04:06:56;;;;;;;20.15;9.10;;;;;;;;;;5089878;28;20030;-92
2023/04/12 04:09:23;;;;;;;23.00;9.60;;;;;;;;;;5085713;28;20051;-91
2023/04/12 04:11:49;;;;;;;22.50;9.07;;;;;;;;;;5069726;28;20036;-92
2023/04/12 04:14:14;;;;;;;19.08;8.38;;;;;;;;;;5085038;28;20046;-91
2023/04/12 04:16:40;;;;;;;21.88;8.32;;;;;;;;;;5077259;28;20024;-92
2023/04/12 04:19:07;;;;;;;17.73;7.78;;;;;;;;;;5093201;28;20023;-90
2023/04/12 04:21:32;;;;;;;20.55;8.88;;;;;;;;;;5100973;28;20040;-90
2023/04/12 04:23:59;;;;;;;21.80;7.97;;;;;;;;;;5067775;28;20108;-90
2023/04/12 04:26:31;;;;;;;16.63;7.57;;;;;;;;;;5103420;28;20047;-91
2023/04/12 04:29:00;;;;;;;23.00;7.65;;;;;;;;;;5085425;28;20135;-91
2023/04/12 04:31:26;;;;;;;15.23;6.75;;;;;;;;;;5068924;28;20046;-91
2023/04/12 04:33:52;;;;;;;15.43;6.30;;;;;;;;;;5089129;28;20023;-89
2023/04/12 04:36:18;;;;;;;28.35;7.53;;;;;;;;;;5083803;28;20456;-91
2023/04/12 04:38:43;;;;;;;26.98;9.00;;;;;;;;;;5085398;28;20043;-90
2023/04/12 04:41:09;;;;;;;26.30;8.70;;;;;;;;;;5102315;28;20055;-88
2023/04/12 04:43:38;;;;;;;25.85;8.55;;;;;;;;;;5085059;28;20019;-89
2023/04/12 04:46:06;;;;;;;18.58;8.00;;;;;;;;;;5086304;28;20043;-85
2023/04/12 04:48:32;;;;;;;18.90;6.50;;;;;;;;;;5086644;28;20027;-91
2023/04/12 04:50:59;;;;;;;28.08;7.22;;;;;;;;;;5120327;28;20083;-89
2023/04/12 04:53:25;;;;;;;13.30;5.88;;;;;;;;;;5085399;28;20027;-90
2023/04/12 04:55:56;;;;;;;21.98;6.55;;;;;;;;;;5113565;28;20031;-91
2023/04/12 04:58:22;;;;;;;15.32;6.28;;;;;;;;;;5092466;28;20038;-86
2023/04/12 05:00:47;;;;;;;14.15;6.65;;;;;;;;;;5108985;28;20436;-90
2023/04/12 05:03:13;;;;;;;17.10;6.43;;;;;;;;;;5101533;28;20460;-91
2023/04/12 05:05:41;;;;;;;16.48;6.30;;;;;;;;;;5117321;28;20035;-91
2023/04/12 05:08:15;;;;;;;36.78;14.02;;;;;;;;;;5101114;28;20039;-89
2023/04/12 05:10:43;;;;;;;17.85;7.15;;;;;;;;;;5084460;28;20031;-89
2023/04/12 05:13:08;;;;;;;22.30;9.80;;;;;;;;;;5085582;28;20083;-90
2023/04/12 05:15:34;;;;;;;43.65;21.50;;;;;;;;;;5066510;28;20453;-91
2023/04/12 05:18:09;;;;;;;32.47;16.20;;;;;;;;;;5083577;28;20028;-91
2023/04/12 05:20:38;;;;;;;30.70;15.70;;;;;;;;;;5097983;28;20044;-89
2023/04/12 05:23:03;;;;;;;16.95;8.25;;;;;;;;;;5069115;28;20032;-90
2023/04/12 05:25:29;;;;;;;19.15;7.93;;;;;;;;;;5102157;28;20065;-91
2023/04/12 05:28:02;;;;;;;29.73;9.00;;;;;;;;;;5067413;28;20038;-91
2023/04/12 05:30:31;;;;;;;24.70;7.88;;;;;;;;;;5068033;28;20063;-94
2023/04/12 05:32:57;;;;;;;19.85;8.40;;;;;;;;;;5086974;28;20118;-92
2023/04/12 05:35:24;;;;;;;19.95;7.65;;;;;;;;;;5083408;28;20056;-91
2023/04/12 05:37:51;;;;;;;21.45;7.75;;;;;;;;;;5118944;28;20040;-91
2023/04/12 05:40:16;;;;;;;21.73;7.55;;;;;;;;;;5075849;28;20051;-92
2023/04/12 05:42:42;;;;;;;18.52;9.02;;;;;;;;;;5089149;28;20441;-90
2023/04/12 05:45:08;;;;;;;18.02;7.65;;;;;;;;;;5087291;28;20036;-90
2023/04/12 05:47:35;;;;;;;16.27;8.07;;;;;;;;;;5101521;28;20062;-89
2023/04/12 05:50:02;;;;;;;14.80;7.85;;;;;;;;;;5102883;28;20028;-94
2023/04/12 05:52:27;;;;;;;19.98;8.45;;;;;;;;;;5085353;28;20051;-90
2023/04/12 05:54:53;;;;;;;19.17;9.85;;;;;;;;;;5083207;28;20034;-90
2023/04/12 05:57:18;;;;;;;21.02;9.30;;;;;;;;;;5100126;28;20031;-89
2023/04/12 05:59:44;;;;;;;19.35;9.18;;;;;;;;;;5100037;28;20397;-92
2023/04/12 06:02:10;;;;;;;32.38;13.98;;;;;;;;;;5098238;28;20070;-92
2023/04/12 06:04:39;;;;;;;22.40;10.50;;;;;;;;;;5085891;28;20559;-92
2023/04/12 06:07:05;;;;;;;19.02;10.00;;;;;;;;;;5067245;28;20028;-91
2023/04/12 06:09:31;;;;;;;17.67;10.48;;;;;;;;;;5115928;28;20038;-90
2023/04/12 06:11:56;;;;;;;21.00;10.50;;;;;;;;;;5115194;28;20498;-90
2023/04/12 06:14:22;;;;;;;19.88;10.05;;;;;;;;;;5115751;28;20020;-92
2023/04/12 06:16:47;;;;;;;19.52;11.32;;;;;;;;;;5115479;28;20071;-92
2023/04/12 06:19:13;;;;;;;33.28;15.00;;;;;;;;;;5115295;28;20082;-90
2023/04/12 06:21:38;;;;;;;30.40;14.02;;;;;;;;;;5122618;28;20026;-91
2023/04/12 06:24:04;;;;;;;33.95;15.68;;;;;;;;;;5105425;28;20046;-90
2023/04/12 06:26:29;;;;;;;27.33;13.43;;;;;;;;;;5115289;28;20031;-92
2023/04/12 06:28:55;;;;;;;27.73;13.13;;;;;;;;;;5099662;28;20049;-89
2023/04/12 06:31:22;;;;;;;25.55;11.98;;;;;;;;;;5114521;28;20039;-91
2023/04/12 06:33:49;;;;;;;29.92;11.80;;;;;;;;;;5096393;28;20061;-92
2023/04/12 06:36:15;;;;;;;25.85;12.63;;;;;;;;;;5114878;28;20031;-90
2023/04/12 06:38:41;;;;;;;27.67;11.23;;;;;;;;;;5096763;28;20024;-86
2023/04/12 06:41:07;;;;;;;31.80;11.20;;;;;;;;;;5096915;28;20035;-87
2023/04/12 06:43:32;;;;;;;17.38;9.90;;;;;;;;;;5129975;28;20450;-84
2023/04/12 06:45:58;;;;;;;20.08;10.40;;;;;;;;;;5115754;28;20042;-90
2023/04/12 06:48:24;;;;;;;20.35;10.57;;;;;;;;;;5101875;28;20532;-88
2023/04/12 06:50:49;;;;;;;29.40;9.80;;;;;;;;;;5118374;28;20126;-88
2023/04/12 06:53:15;;;;;;;29.08;9.52;;;;;;;;;;5118137;28;20024;-83
2023/04/12 06:55:42;;;;;;;36.25;9.68;;;;;;;;;;5100469;28;20027;-89
2023/04/12 06:58:07;;;;;;;19.73;8.02;;;;;;;;;;5100126;28;20042;-86
2023/04/12 07:00:33;;;;;;;30.52;8.25;;;;;;;;;;5084151;28;20027;-93
2023/04/12 07:02:59;;;;;;;71.10;16.45;;;;;;;;;;5120904;28;20122;-87
2023/04/12 07:05:24;;;;;;;20.35;9.68;;;;;;;;;;5122071;28;20039;-88
2023/04/12 07:07:49;;;;;;;25.13;8.38;;;;;;;;;;5120043;28;20036;-90
2023/04/12 07:10:15;;;;;;;22.15;8.02;;;;;;;;;;5121083;28;20433;-87
2023/04/12 07:12:41;;;;;;;23.63;7.15;;;;;;;;;;5129743;28;20039;-91
2023/04/12 07:15:07;;;;;;;23.48;7.38;;;;;;;;;;5118754;28;20038;-87
2023/04/12 07:17:33;;;;;;;30.25;8.15;;;;;;;;;;5117899;28;20038;-84
2023/04/12 07:19:59;;;;;;;37.13;10.98;;;;;;;;;;5117123;28;20035;-85
2023/04/12 07:22:24;;;;;;;19.38;8.63;;;;;;;;;;5098540;28;20063;-85
2023/04/12 07:24:50;;;;;;;32.45;8.18;;;;;;;;;;5123804;28;20023;-83
2023/04/12 07:27:16;;;;;;;29.58;7.95;;;;;;;;;;5121148;28;20046;-85
2023/04/12 07:29:41;;;;;;;38.15;8.85;;;;;;;;;;5098755;28;20042;-84
2023/04/12 07:32:08;;;;;;;12.13;7.15;;;;;;;;;;5116687;28;20035;-85
2023/04/12 07:34:33;;;;;;;17.15;7.53;;;;;;;;;;5116808;28;20036;-85
2023/04/12 07:36:59;;;;;;;27.95;11.90;;;;;;;;;;5116726;28;20054;-85
2023/04/12 07:39:25;;;;;;;19.83;9.73;;;;;;;;;;5116865;28;20027;-83
2023/04/12 07:41:51;;;;;;;21.88;7.70;;;;;;;;;;5098798;28;20031;-85
2023/04/12 07:44:17;;;;;;;10.38;7.15;;;;;;;;;;5101474;28;20031;-85
2023/04/12 07:46:43;;;;;;;19.23;6.82;;;;;;;;;;5121243;28;20047;-85
2023/04/12 07:49:09;;;;;;;25.48;6.80;;;;;;;;;;5117215;28;20453;-84
2023/04/12 07:51:35;;;;;;;25.85;8.73;;;;;;;;;;5116841;28;20035;-86
2023/04/12 07:54:01;;;;;;;24.08;6.53;;;;;;;;;;5081391;28;20028;-85
2023/04/12 07:56:26;;;;;;;26.58;7.75;;;;;;;;;;5116351;28;20449;-84
2023/04/12 07:58:52;;;;;;;21.67;7.80;;;;;;;;;;5115999;28;20106;-82
2023/04/12 08:01:17;;;;;;;29.67;7.18;;;;;;;;;;5116220;28;20049;-84
2023/04/12 08:03:42;;;;;;;33.33;6.95;;;;;;;;;;5117144;28;20047;-84
2023/04/12 08:06:09;;;;;;;28.92;7.93;;;;;;;;;;5118963;28;20100;-84
2023/04/12 08:08:35;;;;;;;35.22;7.85;;;;;;;;;;5122025;28;20106;-84
2023/04/12 08:11:02;;;;;;;46.97;8.10;;;;;;;;;;5117641;28;20058;-84
2023/04/12 08:13:27;;;;;;;36.30;16.23;;;;;;;;;;5119250;28;20031;-84
2023/04/12 08:15:52;;;;;;;175.52;59.42;;;;;;;;;;5087765;28;20067;-84
2023/04/12 08:18:18;;;;;;;52.67;10.38;;;;;;;;;;5106485;28;20416;-83
2023/04/12 08:20:43;;;;;;;43.10;12.93;;;;;;;;;;5066985;28;20040;-83
2023/04/12 08:23:10;;;;;;;38.10;9.57;;;;;;;;;;5086625;28;20139;-85
2023/04/12 08:25:36;;;;;;;40.75;9.75;;;;;;;;;;5086620;28;20058;-86
2023/04/12 08:28:02;;;;;;;43.78;10.48;;;;;;;;;;5097395;28;20032;-85
2023/04/12 08:30:28;;;;;;;46.75;9.73;;;;;;;;;;5114144;28;20092;-85
2023/04/12 08:32:53;;;;;;;50.40;9.98;;;;;;;;;;5086678;28;20035;-83
2023/04/12 08:35:19;;;;;;;28.98;9.55;;;;;;;;;;5098810;28;20031;-84
2023/04/12 08:37:44;;;;;;;54.97;10.10;;;;;;;;;;5109400;28;20047;-84
2023/04/12 08:40:10;;;;;;;55.22;10.20;;;;;;;;;;5107244;28;20434;-87
2023/04/12 08:42:36;;;;;;;105.82;11.65;;;;;;;;;;5096001;28;20362;-86
2023/04/12 08:45:08;;;;;;;22.35;9.18;;;;;;;;;;5095090;28;20020;-86
2023/04/12 08:47:34;;;;;;;34.83;8.77;;;;;;;;;;5080699;28;20461;-84
2023/04/12 08:50:01;;;;;;;28.88;9.32;;;;;;;;;;5060985;28;20028;-86
2023/04/12 08:52:27;;;;;;;43.80;9.70;;;;;;;;;;5077051;28;20028;-86
2023/04/12 08:55:17;;;;;;;57.92;12.93;;;;;;;;;;5095031;28;20028;-86
2023/04/12 08:57:43;;;;;;;30.00;11.07;;;;;;;;;;5096162;28;20165;-87
2023/04/12 09:00:11;;;;;;;42.80;9.90;;;;;;;;;;5061611;28;20471;-86
2023/04/12 09:02:37;;;;;;;57.35;10.63;;;;;;;;;;5095047;28;20028;-86
2023/04/12 09:05:03;;;;;;;55.10;11.10;;;;;;;;;;5094952;28;20028;-85
2023/04/12 09:07:30;;;;;;;24.95;10.02;;;;;;;;;;5059977;28;20020;-87
2023/04/12 09:10:00;;;;;;;44.45;9.52;;;;;;;;;;5087759;28;20028;-86
2023/04/12 09:12:26;;;;;;;68.25;11.63;;;;;;;;;;5044045;28;20407;-85
2023/04/12 09:15:07;;;;;;;47.65;10.85;;;;;;;;;;5076820;28;20059;-86
2023/04/12 09:17:40;;;;;;;40.92;12.07;;;;;;;;;;5077138;28;20035;-84
2023/04/12 09:20:22;;;;;;;63.83;11.57;;;;;;;;;;5079650;28;20423;-86
2023/04/12 09:22:49;;;;;;;41.35;11.38;;;;;;;;;;5096344;28;20102;-86
2023/04/12 09:25:16;;;;;;;26.88;11.15;;;;;;;;;;5114783;28;20049;-86
2023/04/12 09:27:51;;;;;;;21.35;10.57;;;;;;;;;;5114530;28;20287;-86
2023/04/12 09:30:17;;;;;;;15.40;8.13;;;;;;;;;;5082980;28;20045;-84
2023/04/12 09:32:44;;;;;;;28.98;9.98;;;;;;;;;;5096807;28;20066;-86
2023/04/12 09:35:16;;;;;;;35.75;9.43;;;;;;;;;;5097633;28;20057;-86
2023/04/12 09:37:41;;;;;;;29.92;10.05;;;;;;;;;;5099540;28;20024;-83
2023/04/12 09:40:08;;;;;;;18.08;8.75;;;;;;;;;;5096193;28;20027;-86
2023/04/12 09:42:34;;;;;;;16.38;8.15;;;;;;;;;;5114947;28;20036;-85
2023/04/12 09:45:01;;;;;;;20.20;8.18;;;;;;;;;;5114331;28;20055;-84
2023/04/12 09:47:39;;;;;;;27.35;7.80;;;;;;;;;;5079453;28;20384;-84
2023/04/12 09:50:06;;;;;;;16.23;8.00;;;;;;;;;;5101691;28;20015;-85
2023/04/12 09:52:39;;;;;;;23.25;9.18;;;;;;;;;;5132281;28;20040;-84
2023/04/12 09:55:11;;;;;;;18.00;9.15;;;;;;;;;;5114162;28;20036;-85
2023/04/12 09:57:38;;;;;;;16.08;8.35;;;;;;;;;;5097006;28;20080;-86
2023/04/12 10:00:04;;;;;;;11.32;7.03;;;;;;;;;;5096447;28;20032;-85
2023/04/12 10:02:30;;;;;;;18.65;7.53;;;;;;;;;;5079461;28;20028;-85
2023/04/12 10:04:55;;;;;;;20.20;8.90;;;;;;;;;;5095946;28;20370;-84
2023/04/12 10:07:21;;;;;;;15.68;7.90;;;;;;;;;;5096043;28;20035;-85
2023/04/12 10:09:47;;;;;;;16.15;7.43;;;;;;;;;;5096526;28;20024;-87
2023/04/12 10:12:12;;;;;;;21.67;8.80;;;;;;;;;;5122175;28;20036;-85
2023/04/12 10:14:37;;;;;;;16.13;6.78;;;;;;;;;;5097076;28;20038;-86
2023/04/12 10:17:04;;;;;;;15.75;6.85;;;;;;;;;;5097000;28;20063;-86
2023/04/12 10:19:32;;;;;;;9.88;6.20;;;;;;;;;;5078947;28;20110;-86
2023/04/12 10:21:58;;;;;;;12.48;6.82;;;;;;;;;;5095575;28;20036;-86
2023/04/12 10:24:27;;;;;;;14.45;6.63;;;;;;;;;;5099901;28;20032;-85
2023/04/12 10:26:54;;;;;;;10.02;5.57;;;;;;;;;;5118358;28;20445;-85
2023/04/12 10:29:49;;;;;;;14.90;6.43;;;;;;;;;;5120429;28;20050;-85
2023/04/12 10:32:22;;;;;;;19.95;6.57;;;;;;;;;;5105968;28;20110;-85
2023/04/12 10:34:51;;;;;;;14.70;6.40;;;;;;;;;;5114740;28;20490;-83
2023/04/12 10:37:16;;;;;;;15.18;7.18;;;;;;;;;;5120769;28;20023;-87
2023/04/12 10:39:46;;;;;;;20.42;7.00;;;;;;;;;;5117987;28;20475;-85
2023/04/12 10:42:26;;;;;;;9.57;6.85;;;;;;;;;;5099740;28;20373;-84
2023/04/12 10:44:56;;;;;;;12.27;5.60;;;;;;;;;;5101937;28;20072;-84
2023/04/12 10:47:46;;;;;;;14.43;6.63;;;;;;;;;;5117887;28;20160;-85
2023/04/12 10:50:23;;;;;;;;;;;;;;;;;;5117838;28;20453;-85
2023/04/12 10:53:16;;;;;;;14.98;4.95;;;;;;;;;;5123320;28;19911;-84
2023/04/12 10:55:43;;;;;;;14.18;4.68;;;;;;;;;;5119019;28;20038;-86
2023/04/12 10:58:08;;;;;;;23.25;4.28;;;;;;;;;;5082962;28;20055;-84
2023/04/12 11:00:54;;;;;;;12.20;4.28;;;;;;;;;;5100080;28;20047;-85
2023/04/12 11:03:20;;;;;;;13.00;3.92;;;;;;;;;;5117383;28;20024;-85
2023/04/12 11:06:04;;;;;;;17.73;4.57;;;;;;;;;;5098960;28;20027;-85
2023/04/12 11:08:30;;;;;;;12.30;4.13;;;;;;;;;;5099253;28;20096;-84
2023/04/12 11:11:02;;;;;;;13.55;4.18;;;;;;;;;;5099097;28;20032;-84
2023/04/12 11:13:29;;;;;;;25.58;4.60;;;;;;;;;;5117916;28;20107;-85
2023/04/12 11:15:58;;;;;;;15.00;4.45;;;;;;;;;;5112119;28;20114;-84
2023/04/12 11:18:24;;;;;;;24.27;5.47;;;;;;;;;;5118241;28;20027;-86
2023/04/12 11:20:51;;;;;;;22.48;4.60;;;;;;;;;;5093823;28;20039;-84
2023/04/12 11:23:17;;;;;;;13.52;3.15;;;;;;;;;;5116788;28;20032;-84
2023/04/12 11:25:43;;;;;;;9.95;3.70;;;;;;;;;;5081924;28;20035;-83
2023/04/12 11:28:08;;;;;;;14.02;3.75;;;;;;;;;;5098715;28;20040;-85
2023/04/12 11:30:34;;;;;;;7.90;3.50;;;;;;;;;;5116624;28;20028;-84
2023/04/12 11:33:12;;;;;;;10.75;3.50;;;;;;;;;;5117158;28;20053;-85
2023/04/12 11:49:04;;;;;;;10.73;3.10;;;;;;;;;;5559280;22;20067;-84
2023/04/12 11:52:08;;;;;;;6.78;2.85;;;;;;;;;;5017657;28;20042;-84
2023/04/12 11:54:57;;;;;;;15.35;3.53;;;;;;;;;;5014071;28;20046;-83
2023/04/12 11:57:23;;;;;;;21.35;2.97;;;;;;;;;;5039111;28;20029;-85
2023/04/12 11:59:49;;;;;;;5.18;2.90;;;;;;;;;;5002315;28;20124;-84
2023/04/12 12:02:16;;;;;;;6.78;2.97;;;;;;;;;;5000875;28;20087;-86
2023/04/12 12:04:43;;;;;;;16.65;3.50;;;;;;;;;;5001074;28;20056;-83
2023/04/12 12:07:12;;;;;;;10.07;3.05;;;;;;;;;;5017923;28;20440;-85
2023/04/12 12:09:43;;;;;;;18.58;3.72;;;;;;;;;;5016608;28;20455;-83
2023/04/12 12:15:30;;;;;;;14.77;2.63;;;;;;;;;;5102669;22;20094;-80
2023/04/12 12:17:55;;;;;;;16.35;3.60;;;;;;;;;;5080524;28;20036;-80
2023/04/12 12:20:21;;;;;;;9.93;3.03;;;;;;;;;;5078308;28;20038;-82
2023/04/12 12:22:46;;;;;;;16.15;2.80;;;;;;;;;;5060563;28;20036;-80
2023/04/12 12:25:12;;;;;;;11.30;2.80;;;;;;;;;;5077027;28;20082;-81
2023/04/12 12:27:38;;;;;;;11.98;2.33;;;;;;;;;;5060743;28;20082;-82
2023/04/12 12:30:06;;;;;;;8.23;2.53;;;;;;;;;;5094937;28;20024;-83
2023/04/12 12:32:35;;;;;;;18.17;3.13;;;;;;;;;;5094973;28;20057;-83
2023/04/12 12:35:01;;;;;;;15.63;3.13;;;;;;;;;;5060470;28;20031;-82
2023/04/12 12:37:27;;;;;;;13.55;2.80;;;;;;;;;;5060682;28;20038;-82
2023/04/12 12:40:12;;;;;;;20.73;2.70;;;;;;;;;;5076617;28;20032;-82
2023/04/12 12:42:45;;;;;;;31.02;3.63;;;;;;;;;;5077708;28;20069;-83
2023/04/12 12:45:12;;;;;;;15.32;2.47;;;;;;;;;;5075846;28;20031;-83
2023/04/12 12:48:04;;;;;;;10.75;2.60;;;;;;;;;;5059998;28;20128;-84
2023/04/12 12:50:33;;;;;;;6.38;2.13;;;;;;;;;;5071765;28;20397;-84
2023/04/12 12:53:01;;;;;;;6.63;2.35;;;;;;;;;;5043585;28;20035;-85
2023/04/12 12:55:27;;;;;;;15.88;2.60;;;;;;;;;;5076747;28;20110;-84
2023/04/12 12:57:54;;;;;;;12.40;2.85;;;;;;;;;;5076278;28;20023;-84
2023/04/12 13:00:21;;;;;;;9.43;2.70;;;;;;;;;;5059897;28;20028;-84
2023/04/12 13:02:47;;;;;;;10.98;2.20;;;;;;;;;;5076369;28;20031;-85
2023/04/12 13:05:13;;;;;;;6.18;2.63;;;;;;;;;;5059586;28;20039;-85
2023/04/12 13:07:38;;;;;;;12.00;3.97;;;;;;;;;;5076334;28;20024;-84
2023/04/12 13:10:04;;;;;;;8.73;2.83;;;;;;;;;;5076230;28;20028;-84
2023/04/12 13:12:30;;;;;;;7.28;3.92;;;;;;;;;;5076210;28;20064;-84
2023/04/12 13:14:56;;;;;;;21.95;13.38;;;;;;;;;;5059160;28;20051;-86
2023/04/12 13:17:21;;;;;;;14.00;5.60;;;;;;;;;;5042732;28;20028;-85
2023/04/12 13:19:47;;;;;;;9.30;3.80;;;;;;;;;;5076291;28;20095;-83
2023/04/12 13:22:13;;;;;;;9.43;2.65;;;;;;;;;;5059570;28;20027;-84
2023/04/12 13:24:39;;;;;;;9.77;2.40;;;;;;;;;;5055962;28;20024;-86
2023/04/12 13:27:04;;;;;;;11.45;2.25;;;;;;;;;;5075963;28;20024;-84
2023/04/12 13:29:29;;;;;;;6.85;2.03;;;;;;;;;;5059455;28;20028;-84
2023/04/12 13:31:55;;;;;;;12.50;2.42;;;;;;;;;;5076200;28;20473;-84
2023/04/12 13:34:21;;;;;;;10.05;3.08;;;;;;;;;;5076152;28;20025;-86
2023/04/12 13:36:47;;;;;;;8.85;2.63;;;;;;;;;;5075925;28;20118;-84
2023/04/12 13:39:13;;;;;;;11.80;2.63;;;;;;;;;;5059431;28;20028;-87
2023/04/12 13:41:38;;;;;;;24.70;12.88;;;;;;;;;;5093776;28;20105;-85
2023/04/12 13:44:04;;;;;;;10.23;4.05;;;;;;;;;;5059273;28;20055;-85
2023/04/12 13:46:32;;;;;;;70.43;3.83;;;;;;;;;;5075664;28;20036;-85
2023/04/12 13:48:58;;;;;;;17.50;2.42;;;;;;;;;;5075737;28;20068;-85
2023/04/12 13:51:24;;;;;;;7.93;2.40;;;;;;;;;;5094072;28;20067;-83
2023/04/12 13:53:50;;;;;;;6.53;3.00;;;;;;;;;;5093804;28;20043;-85
2023/04/12 13:56:15;;;;;;;8.43;2.30;;;;;;;;;;5090416;28;20024;-86
2023/04/12 13:58:41;;;;;;;4.28;2.13;;;;;;;;;;5097607;28;20496;-84
2023/04/12 14:01:12;;;;;;;12.07;2.28;;;;;;;;;;5097872;28;20059;-85
2023/04/12 14:03:37;;;;;;;6.45;2.30;;;;;;;;;;5098301;28;20058;-86
2023/04/12 14:06:03;;;;;;;13.90;2.80;;;;;;;;;;5097468;28;20060;-85
2023/04/12 14:08:28;;;;;;;8.18;2.17;;;;;;;;;;5079384;28;20032;-85
2023/04/12 14:10:54;;;;;;;17.20;2.92;;;;;;;;;;5079959;28;20024;-83
2023/04/12 14:13:23;;;;;;;4.85;2.30;;;;;;;;;;5097493;28;20062;-82
2023/04/12 14:15:50;;;;;;;25.92;11.60;;;;;;;;;;5062867;28;20048;-82
2023/04/12 14:18:30;;;;;;;7.20;2.50;;;;;;;;;;5081150;28;20028;-84
2023/04/12 14:20:58;;;;;;;7.05;3.35;;;;;;;;;;5081719;28;20452;-84
2023/04/12 14:23:24;;;;;;;9.80;3.78;;;;;;;;;;5098339;28;20419;-84
2023/04/12 14:25:50;;;;;;;6.57;3.17;;;;;;;;;;5062744;28;20028;-83
2023/04/12 14:28:16;;;;;;;7.82;2.45;;;;;;;;;;5097041;28;20081;-84
2023/04/12 14:30:44;;;;;;;4.82;2.42;;;;;;;;;;5097406;28;20031;-83
2023/04/12 14:33:10;;;;;;;12.15;2.33;;;;;;;;;;5079367;28;20107;-83
2023/04/12 14:35:35;;;;;;;7.57;2.55;;;;;;;;;;5079580;28;20111;-83
2023/04/12 14:38:01;;;;;;;3.10;2.08;;;;;;;;;;5062386;28;20032;-83
2023/04/12 14:40:27;;;;;;;9.75;2.35;;;;;;;;;;5079045;28;20028;-84
2023/04/12 14:42:52;;;;;;;8.13;2.13;;;;;;;;;;5078871;28;20056;-83
2023/04/12 14:45:19;;;;;;;13.25;1.98;;;;;;;;;;5078719;28;20039;-83
2023/04/12 14:47:45;;;;;;;7.47;2.20;;;;;;;;;;5079073;28;20052;-84